sensor_id;sensor_type;location;lat;lon;timestamp;pressure;altitude;pressure_sealevel;temperature;humidity
61035;BME280;46916;40.564;-7.958;2023-05-25T00:01:42;97277.19;;;18.63;72.00
61035;BME280;46916;40.564;-7.958;2023-05-25T00:03:43;97269.06;;;18.50;72.31
61035;BME280;46916;40.564;-7.958;2023-05-25T00:05:45;97277.56;;;18.45;72.77
61035;BME280;46916;40.564;-7.958;2023-05-25T00:07:46;97271.16;;;18.40;73.01
61035;BME280;46916;40.564;-7.958;2023-05-25T00:09:46;97272.88;;;18.32;73.18
61035;BME280;46916;40.564;-7.958;2023-05-25T00:11:47;97274.56;;;18.34;73.21
61035;BME280;46916;40.564;-7.958;2023-05-25T00:13:49;97272.44;;;18.29;73.25
61035;BME280;46916;40.564;-7.958;2023-05-25T00:15:49;97269.41;;;18.32;73.09
61035;BME280;46916;40.564;-7.958;2023-05-25T00:17:50;97278.84;;;18.35;72.91
61035;BME280;46916;40.564;-7.958;2023-05-25T00:19:53;97281.94;;;18.38;72.67
61035;BME280;46916;40.564;-7.958;2023-05-25T00:21:57;97289.34;;;18.43;72.86
61035;BME280;46916;40.564;-7.958;2023-05-25T00:24:01;97279.47;;;18.37;72.79
61035;BME280;46916;40.564;-7.958;2023-05-25T00:26:02;97281.03;;;18.31;72.78
61035;BME280;46916;40.564;-7.958;2023-05-25T00:28:03;97274.53;;;18.19;73.18
61035;BME280;46916;40.564;-7.958;2023-05-25T00:30:22;97274.63;;;18.11;73.40
61035;BME280;46916;40.564;-7.958;2023-05-25T00:32:23;97273.31;;;18.06;73.30
61035;BME280;46916;40.564;-7.958;2023-05-25T00:34:24;97271.34;;;18.09;73.22
61035;BME280;46916;40.564;-7.958;2023-05-25T00:36:25;97280.19;;;18.16;72.81
61035;BME280;46916;40.564;-7.958;2023-05-25T00:38:25;97279.81;;;18.19;72.63
61035;BME280;46916;40.564;-7.958;2023-05-25T00:40:26;97282.75;;;18.24;72.51
61035;BME280;46916;40.564;-7.958;2023-05-25T00:42:27;97282.28;;;18.20;72.32
61035;BME280;46916;40.564;-7.958;2023-05-25T00:44:29;97277.66;;;18.22;72.30
61035;BME280;46916;40.564;-7.958;2023-05-25T00:46:33;97284.22;;;18.26;72.09
61035;BME280;46916;40.564;-7.958;2023-05-25T00:48:34;97278.19;;;18.32;71.70
61035;BME280;46916;40.564;-7.958;2023-05-25T00:50:41;97278.28;;;18.39;71.71
61035;BME280;46916;40.564;-7.958;2023-05-25T00:52:42;97284.88;;;18.43;71.46
61035;BME280;46916;40.564;-7.958;2023-05-25T00:54:45;97284.50;;;18.46;71.31
61035;BME280;46916;40.564;-7.958;2023-05-25T00:56:52;97273.09;;;18.46;71.22
61035;BME280;46916;40.564;-7.958;2023-05-25T00:58:59;97274.25;;;18.43;71.18
61035;BME280;46916;40.564;-7.958;2023-05-25T01:01:04;97275.63;;;18.39;71.26
61035;BME280;46916;40.564;-7.958;2023-05-25T01:03:11;97268.69;;;18.38;71.27
61035;BME280;46916;40.564;-7.958;2023-05-25T01:05:13;97269.97;;;18.42;71.26
61035;BME280;46916;40.564;-7.958;2023-05-25T01:07:21;97271.41;;;18.45;71.29
61035;BME280;46916;40.564;-7.958;2023-05-25T01:09:23;97277.38;;;18.47;71.35
61035;BME280;46916;40.564;-7.958;2023-05-25T01:11:38;97271.88;;;18.48;71.36
61035;BME280;46916;40.564;-7.958;2023-05-25T01:13:41;97263.94;;;18.48;71.22
61035;BME280;46916;40.564;-7.958;2023-05-25T01:15:42;97277.19;;;18.48;71.23
61035;BME280;46916;40.564;-7.958;2023-05-25T01:17:43;97277.38;;;18.47;71.20
61035;BME280;46916;40.564;-7.958;2023-05-25T01:19:45;97271.41;;;18.45;71.17
61035;BME280;46916;40.564;-7.958;2023-05-25T01:24:02;97286.50;;;18.44;70.96
61035;BME280;46916;40.564;-7.958;2023-05-25T01:26:09;97286.59;;;18.36;70.91
61035;BME280;46916;40.564;-7.958;2023-05-25T01:30:14;97286.47;;;18.00;71.85
61035;BME280;46916;40.564;-7.958;2023-05-25T01:32:16;97290.47;;;17.81;72.71
61035;BME280;46916;40.564;-7.958;2023-05-25T01:34:19;97291.03;;;17.68;73.13
61035;BME280;46916;40.564;-7.958;2023-05-25T01:36:20;97292.25;;;17.57;73.47
61035;BME280;46916;40.564;-7.958;2023-05-25T01:38:21;97295.31;;;17.46;73.74
61035;BME280;46916;40.564;-7.958;2023-05-25T01:40:22;97286.25;;;17.41;74.13
61035;BME280;46916;40.564;-7.958;2023-05-25T01:42:22;97291.97;;;17.29;74.27
61035;BME280;46916;40.564;-7.958;2023-05-25T01:44:24;97290.19;;;17.22;74.83
61035;BME280;46916;40.564;-7.958;2023-05-25T01:46:39;97286.72;;;17.21;74.90
61035;BME280;46916;40.564;-7.958;2023-05-25T01:53:21;97276.06;;;17.29;74.55
61035;BME280;46916;40.564;-7.958;2023-05-25T01:55:24;97278.72;;;17.29;74.52
61035;BME280;46916;40.564;-7.958;2023-05-25T01:57:28;97275.72;;;17.32;74.48
61035;BME280;46916;40.564;-7.958;2023-05-25T01:59:30;97277.84;;;17.37;74.29
61035;BME280;46916;40.564;-7.958;2023-05-25T02:01:32;97276.25;;;17.28;74.43
61035;BME280;46916;40.564;-7.958;2023-05-25T02:03:35;97277.72;;;17.30;74.63
61035;BME280;46916;40.564;-7.958;2023-05-25T02:05:38;97276.56;;;17.33;74.49
61035;BME280;46916;40.564;-7.958;2023-05-25T02:07:40;97278.66;;;17.38;74.24
61035;BME280;46916;40.564;-7.958;2023-05-25T02:09:41;97270.19;;;17.42;73.96
61035;BME280;46916;40.564;-7.958;2023-05-25T02:11:42;97272.97;;;17.49;73.89
61035;BME280;46916;40.564;-7.958;2023-05-25T02:13:42;97265.84;;;17.49;73.71
61035;BME280;46916;40.564;-7.958;2023-05-25T02:15:43;97269.16;;;17.51;73.60
61035;BME280;46916;40.564;-7.958;2023-05-25T02:17:44;97264.22;;;17.48;73.62
61035;BME280;46916;40.564;-7.958;2023-05-25T02:19:45;97269.03;;;17.45;73.58
61035;BME280;46916;40.564;-7.958;2023-05-25T02:21:47;97268.56;;;17.41;73.67
61035;BME280;46916;40.564;-7.958;2023-05-25T02:23:48;97265.56;;;17.44;73.55
61035;BME280;46916;40.564;-7.958;2023-05-25T02:25:48;97267.31;;;17.52;73.46
61035;BME280;46916;40.564;-7.958;2023-05-25T02:27:51;97272.09;;;17.56;73.29
61035;BME280;46916;40.564;-7.958;2023-05-25T02:29:51;97271.34;;;17.63;73.08
61035;BME280;46916;40.564;-7.958;2023-05-25T02:31:52;97275.50;;;17.65;73.11
61035;BME280;46916;40.564;-7.958;2023-05-25T02:33:54;97277.94;;;17.67;73.04
61035;BME280;46916;40.564;-7.958;2023-05-25T02:35:55;97274.94;;;17.70;73.06
61035;BME280;46916;40.564;-7.958;2023-05-25T02:37:56;97281.25;;;17.69;72.78
61035;BME280;46916;40.564;-7.958;2023-05-25T02:39:56;97282.06;;;17.69;72.70
61035;BME280;46916;40.564;-7.958;2023-05-25T02:41:57;97282.63;;;17.65;72.56
61035;BME280;46916;40.564;-7.958;2023-05-25T02:43:59;97284.66;;;17.54;72.73
61035;BME280;46916;40.564;-7.958;2023-05-25T02:46:00;97292.09;;;17.36;72.89
61035;BME280;46916;40.564;-7.958;2023-05-25T02:48:00;97290.41;;;17.12;73.66
61035;BME280;46916;40.564;-7.958;2023-05-25T02:50:02;97295.59;;;16.97;74.14
61035;BME280;46916;40.564;-7.958;2023-05-25T02:52:05;97295.16;;;16.86;74.88
61035;BME280;46916;40.564;-7.958;2023-05-25T02:54:05;97286.81;;;16.74;75.54
61035;BME280;46916;40.564;-7.958;2023-05-25T02:56:07;97294.38;;;16.69;75.97
61035;BME280;46916;40.564;-7.958;2023-05-25T02:58:09;97294.25;;;16.62;76.20
61035;BME280;46916;40.564;-7.958;2023-05-25T03:00:29;97297.25;;;16.51;76.48
61035;BME280;46916;40.564;-7.958;2023-05-25T03:02:31;97286.53;;;16.44;76.50
61035;BME280;46916;40.564;-7.958;2023-05-25T03:04:32;97291.34;;;16.41;76.77
61035;BME280;46916;40.564;-7.958;2023-05-25T03:06:33;97285.06;;;16.42;76.69
61035;BME280;46916;40.564;-7.958;2023-05-25T03:08:42;97291.00;;;16.44;76.44
61035;BME280;46916;40.564;-7.958;2023-05-25T03:10:42;97291.81;;;16.52;76.43
61035;BME280;46916;40.564;-7.958;2023-05-25T03:12:43;97293.78;;;16.58;75.88
61035;BME280;46916;40.564;-7.958;2023-05-25T03:14:44;97290.44;;;16.65;75.59
61035;BME280;46916;40.564;-7.958;2023-05-25T03:16:45;97291.09;;;16.67;75.56
61035;BME280;46916;40.564;-7.958;2023-05-25T03:18:46;97293.22;;;16.71;75.50
61035;BME280;46916;40.564;-7.958;2023-05-25T03:20:46;97290.13;;;16.59;76.04
61035;BME280;46916;40.564;-7.958;2023-05-25T03:22:47;97294.13;;;16.47;76.55
61035;BME280;46916;40.564;-7.958;2023-05-25T03:24:48;97293.53;;;16.37;76.93
61035;BME280;46916;40.564;-7.958;2023-05-25T03:26:49;97289.38;;;16.34;77.15
61035;BME280;46916;40.564;-7.958;2023-05-25T03:28:51;97287.06;;;16.31;77.10
61035;BME280;46916;40.564;-7.958;2023-05-25T03:30:52;97293.03;;;16.25;77.21
61035;BME280;46916;40.564;-7.958;2023-05-25T03:32:52;97286.28;;;16.23;77.10
61035;BME280;46916;40.564;-7.958;2023-05-25T03:34:53;97287.09;;;16.15;77.36
61035;BME280;46916;40.564;-7.958;2023-05-25T03:37:12;97284.31;;;16.17;77.99
61035;BME280;46916;40.564;-7.958;2023-05-25T03:39:13;97284.97;;;16.10;78.10
61035;BME280;46916;40.564;-7.958;2023-05-25T03:41:14;97280.81;;;16.16;78.01
61035;BME280;46916;40.564;-7.958;2023-05-25T03:43:16;97281.16;;;16.21;77.97
61035;BME280;46916;40.564;-7.958;2023-05-25T03:45:20;97279.00;;;16.25;78.08
61035;BME280;46916;40.564;-7.958;2023-05-25T03:47:20;97281.28;;;16.28;77.98
61035;BME280;46916;40.564;-7.958;2023-05-25T03:49:22;97287.06;;;16.31;77.98
61035;BME280;46916;40.564;-7.958;2023-05-25T03:51:23;97289.72;;;16.31;78.14
61035;BME280;46916;40.564;-7.958;2023-05-25T03:53:24;97289.38;;;16.34;77.91
61035;BME280;46916;40.564;-7.958;2023-05-25T03:55:24;97287.88;;;16.40;77.87
61035;BME280;46916;40.564;-7.958;2023-05-25T03:57:25;97289.19;;;16.44;77.41
61035;BME280;46916;40.564;-7.958;2023-05-25T03:59:26;97289.16;;;16.52;77.20
61035;BME280;46916;40.564;-7.958;2023-05-25T04:01:26;97296.41;;;16.58;76.99
61035;BME280;46916;40.564;-7.958;2023-05-25T04:03:29;97291.09;;;16.67;76.71
61035;BME280;46916;40.564;-7.958;2023-05-25T04:05:31;97289.56;;;16.72;76.56
61035;BME280;46916;40.564;-7.958;2023-05-25T04:07:32;97293.22;;;16.79;76.00
61035;BME280;46916;40.564;-7.958;2023-05-25T04:09:33;97286.09;;;16.80;76.21
61035;BME280;46916;40.564;-7.958;2023-05-25T04:11:34;97292.56;;;16.77;75.96
61035;BME280;46916;40.564;-7.958;2023-05-25T04:13:34;97290.75;;;16.78;76.12
61035;BME280;46916;40.564;-7.958;2023-05-25T04:15:37;97296.88;;;16.78;75.82
61035;BME280;46916;40.564;-7.958;2023-05-25T04:17:42;97302.31;;;16.77;75.68
61035;BME280;46916;40.564;-7.958;2023-05-25T04:19:43;97297.38;;;16.74;75.49
61035;BME280;46916;40.564;-7.958;2023-05-25T04:21:44;97297.50;;;16.72;75.63
61035;BME280;46916;40.564;-7.958;2023-05-25T04:23:45;97300.84;;;16.74;75.40
61035;BME280;46916;40.564;-7.958;2023-05-25T04:25:46;97299.03;;;16.75;75.19
61035;BME280;46916;40.564;-7.958;2023-05-25T04:28:05;97295.72;;;16.73;75.06
61035;BME280;46916;40.564;-7.958;2023-05-25T04:30:42;97300.34;;;16.71;75.16
61035;BME280;46916;40.564;-7.958;2023-05-25T04:33:01;97311.91;;;16.70;74.93
61035;BME280;46916;40.564;-7.958;2023-05-25T04:35:08;97310.63;;;16.66;75.09
61035;BME280;46916;40.564;-7.958;2023-05-25T04:37:16;97326.94;;;16.69;74.79
61035;BME280;46916;40.564;-7.958;2023-05-25T04:39:16;97326.13;;;16.69;74.83
61035;BME280;46916;40.564;-7.958;2023-05-25T04:41:24;97327.44;;;16.73;74.83
61035;BME280;46916;40.564;-7.958;2023-05-25T04:43:27;97327.78;;;16.70;74.68
61035;BME280;46916;40.564;-7.958;2023-05-25T04:45:29;97328.44;;;16.64;74.79
61035;BME280;46916;40.564;-7.958;2023-05-25T04:47:32;97328.28;;;16.65;74.77
61035;BME280;46916;40.564;-7.958;2023-05-25T04:49:34;97335.06;;;16.68;74.62
61035;BME280;46916;40.564;-7.958;2023-05-25T04:51:35;97338.50;;;16.68;74.54
61035;BME280;46916;40.564;-7.958;2023-05-25T04:53:37;97344.47;;;16.70;74.27
61035;BME280;46916;40.564;-7.958;2023-05-25T04:55:38;97346.44;;;16.68;74.33
61035;BME280;46916;40.564;-7.958;2023-05-25T04:57:39;97343.81;;;16.60;74.35
61035;BME280;46916;40.564;-7.958;2023-05-25T04:59:40;97351.13;;;16.58;74.33
61035;BME280;46916;40.564;-7.958;2023-05-25T05:01:41;97354.91;;;16.55;74.43
61035;BME280;46916;40.564;-7.958;2023-05-25T05:03:46;97352.97;;;16.49;74.35
61035;BME280;46916;40.564;-7.958;2023-05-25T05:05:48;97355.25;;;16.44;74.40
61035;BME280;46916;40.564;-7.958;2023-05-25T05:07:56;97357.91;;;16.36;74.66
61035;BME280;46916;40.564;-7.958;2023-05-25T05:09:57;97352.13;;;16.32;74.97
61035;BME280;46916;40.564;-7.958;2023-05-25T05:12:00;97352.13;;;16.32;74.83
61035;BME280;46916;40.564;-7.958;2023-05-25T05:14:02;97354.16;;;16.22;74.72
61035;BME280;46916;40.564;-7.958;2023-05-25T05:16:03;97362.91;;;16.23;75.10
61035;BME280;46916;40.564;-7.958;2023-05-25T05:18:04;97360.94;;;16.17;75.42
61035;BME280;46916;40.564;-7.958;2023-05-25T05:20:06;97358.31;;;16.17;75.43
61035;BME280;46916;40.564;-7.958;2023-05-25T05:22:07;97355.66;;;16.17;75.41
61035;BME280;46916;40.564;-7.958;2023-05-25T05:24:09;97360.94;;;16.08;75.44
61035;BME280;46916;40.564;-7.958;2023-05-25T05:26:10;97366.88;;;16.10;75.75
61035;BME280;46916;40.564;-7.958;2023-05-25T05:28:14;97364.22;;;16.10;75.48
61035;BME280;46916;40.564;-7.958;2023-05-25T05:30:15;97365.38;;;16.08;75.51
61035;BME280;46916;40.564;-7.958;2023-05-25T05:32:16;97369.34;;;16.04;75.41
61035;BME280;46916;40.564;-7.958;2023-05-25T05:34:35;97361.91;;;16.07;75.65
61035;BME280;46916;40.564;-7.958;2023-05-25T05:36:41;97365.56;;;16.15;75.16
61035;BME280;46916;40.564;-7.958;2023-05-25T05:38:42;97365.84;;;16.28;74.82
61035;BME280;46916;40.564;-7.958;2023-05-25T05:40:46;97369.66;;;16.33;74.50
61035;BME280;46916;40.564;-7.958;2023-05-25T05:42:52;97376.78;;;16.41;74.13
61035;BME280;46916;40.564;-7.958;2023-05-25T05:44:53;97381.03;;;16.50;73.61
61035;BME280;46916;40.564;-7.958;2023-05-25T05:46:55;97381.03;;;16.58;73.04
61035;BME280;46916;40.564;-7.958;2023-05-25T05:48:59;97376.38;;;16.60;72.39
61035;BME280;46916;40.564;-7.958;2023-05-25T05:51:00;97381.03;;;16.58;72.21
61035;BME280;46916;40.564;-7.958;2023-05-25T05:53:01;97383.66;;;16.58;72.32
61035;BME280;46916;40.564;-7.958;2023-05-25T05:55:01;97383.16;;;16.63;72.06
61035;BME280;46916;40.564;-7.958;2023-05-25T05:57:02;97380.34;;;16.65;71.48
61035;BME280;46916;40.564;-7.958;2023-05-25T05:59:03;97375.22;;;16.63;71.88
61035;BME280;46916;40.564;-7.958;2023-05-25T06:01:04;97377.69;;;16.65;71.59
61035;BME280;46916;40.564;-7.958;2023-05-25T06:03:05;97372.09;;;16.59;71.43
61035;BME280;46916;40.564;-7.958;2023-05-25T06:05:08;97377.06;;;16.54;71.40
61035;BME280;46916;40.564;-7.958;2023-05-25T06:07:11;97373.09;;;16.50;71.50
61035;BME280;46916;40.564;-7.958;2023-05-25T06:09:12;97375.25;;;16.55;70.98
61035;BME280;46916;40.564;-7.958;2023-05-25T06:11:13;97381.53;;;16.54;71.26
61035;BME280;46916;40.564;-7.958;2023-05-25T06:13:14;97380.22;;;16.50;71.32
61035;BME280;46916;40.564;-7.958;2023-05-25T06:15:15;97386.00;;;16.53;71.01
61035;BME280;46916;40.564;-7.958;2023-05-25T06:17:19;97378.06;;;16.53;71.30
61035;BME280;46916;40.564;-7.958;2023-05-25T06:19:19;97381.16;;;16.57;71.07
61035;BME280;46916;40.564;-7.958;2023-05-25T06:21:21;97388.44;;;16.63;70.61
61035;BME280;46916;40.564;-7.958;2023-05-25T06:23:23;97395.06;;;16.67;70.58
61035;BME280;46916;40.564;-7.958;2023-05-25T06:25:23;97387.75;;;16.69;70.27
61035;BME280;46916;40.564;-7.958;2023-05-25T06:27:24;97386.78;;;16.70;70.16
61035;BME280;46916;40.564;-7.958;2023-05-25T06:29:25;97393.41;;;16.74;70.06
61035;BME280;46916;40.564;-7.958;2023-05-25T06:31:26;97385.13;;;16.77;69.63
61035;BME280;46916;40.564;-7.958;2023-05-25T06:33:27;97391.41;;;16.76;69.83
61035;BME280;46916;40.564;-7.958;2023-05-25T06:35:28;97392.91;;;16.79;69.66
61035;BME280;46916;40.564;-7.958;2023-05-25T06:37:48;97390.38;;;16.86;69.33
61035;BME280;46916;40.564;-7.958;2023-05-25T06:39:51;97405.25;;;16.95;69.01
61035;BME280;46916;40.564;-7.958;2023-05-25T06:41:52;97391.38;;;16.93;69.00
61035;BME280;46916;40.564;-7.958;2023-05-25T06:44:02;97393.84;;;16.94;69.12
61035;BME280;46916;40.564;-7.958;2023-05-25T06:46:06;97394.97;;;17.00;68.87
61035;BME280;46916;40.564;-7.958;2023-05-25T06:48:07;97384.22;;;17.01;68.52
61035;BME280;46916;40.564;-7.958;2023-05-25T06:50:08;97397.75;;;17.15;68.26
61035;BME280;46916;40.564;-7.958;2023-05-25T06:52:09;97392.47;;;17.15;67.35
61035;BME280;46916;40.564;-7.958;2023-05-25T06:54:09;97395.09;;;17.15;67.53
61035;BME280;46916;40.564;-7.958;2023-05-25T06:56:11;97401.69;;;17.19;67.38
61035;BME280;46916;40.564;-7.958;2023-05-25T06:58:11;97398.88;;;17.20;66.82
61035;BME280;46916;40.564;-7.958;2023-05-25T07:00:13;97398.69;;;17.22;66.40
61035;BME280;46916;40.564;-7.958;2023-05-25T07:02:13;97410.44;;;17.27;66.40
61035;BME280;46916;40.564;-7.958;2023-05-25T07:04:14;97412.56;;;17.32;66.40
61035;BME280;46916;40.564;-7.958;2023-05-25T07:06:16;97414.16;;;17.41;65.88
61035;BME280;46916;40.564;-7.958;2023-05-25T07:08:35;97416.47;;;17.44;65.00
61035;BME280;46916;40.564;-7.958;2023-05-25T07:10:36;97403.75;;;17.40;64.99
61035;BME280;46916;40.564;-7.958;2023-05-25T07:12:37;97412.19;;;17.43;65.22
61035;BME280;46916;40.564;-7.958;2023-05-25T07:14:41;97400.41;;;17.46;65.54
61035;BME280;46916;40.564;-7.958;2023-05-25T07:16:42;97405.06;;;17.67;64.48
61035;BME280;46916;40.564;-7.958;2023-05-25T07:18:44;97404.78;;;17.62;64.54
61035;BME280;46916;40.564;-7.958;2023-05-25T07:20:46;97411.56;;;17.64;64.14
61035;BME280;46916;40.564;-7.958;2023-05-25T07:22:48;97408.91;;;17.64;63.87
61035;BME280;46916;40.564;-7.958;2023-05-25T07:24:49;97409.41;;;17.68;63.98
61035;BME280;46916;40.564;-7.958;2023-05-25T07:26:52;97410.56;;;17.65;63.97
61035;BME280;46916;40.564;-7.958;2023-05-25T07:28:53;97414.84;;;17.66;64.16
61035;BME280;46916;40.564;-7.958;2023-05-25T07:30:53;97416.16;;;17.70;64.57
61035;BME280;46916;40.564;-7.958;2023-05-25T07:32:54;97422.91;;;17.81;64.03
61035;BME280;46916;40.564;-7.958;2023-05-25T07:35:15;97412.94;;;17.83;63.90
61035;BME280;46916;40.564;-7.958;2023-05-25T07:37:34;97410.91;;;17.93;63.65
61035;BME280;46916;40.564;-7.958;2023-05-25T07:39:34;97416.50;;;17.98;62.76
61035;BME280;46916;40.564;-7.958;2023-05-25T07:41:35;97409.38;;;17.99;62.51
61035;BME280;46916;40.564;-7.958;2023-05-25T07:43:55;97415.81;;;18.04;62.16
61035;BME280;46916;40.564;-7.958;2023-05-25T07:45:56;97411.31;;;18.05;62.44
61035;BME280;46916;40.564;-7.958;2023-05-25T07:47:56;97426.41;;;18.04;63.03
61035;BME280;46916;40.564;-7.958;2023-05-25T07:50:16;97426.69;;;18.10;62.25
61035;BME280;46916;40.564;-7.958;2023-05-25T07:52:17;97425.50;;;18.12;62.37
61035;BME280;46916;40.564;-7.958;2023-05-25T07:54:18;97421.47;;;18.16;62.36
61035;BME280;46916;40.564;-7.958;2023-05-25T07:56:18;97429.91;;;18.20;62.31
61035;BME280;46916;40.564;-7.958;2023-05-25T07:58:38;97424.91;;;18.25;62.13
61035;BME280;46916;40.564;-7.958;2023-05-25T08:00:39;97422.91;;;18.27;61.84
61035;BME280;46916;40.564;-7.958;2023-05-25T08:02:39;97429.50;;;18.31;62.11
61035;BME280;46916;40.564;-7.958;2023-05-25T08:04:41;97432.41;;;18.36;62.24
61035;BME280;46916;40.564;-7.958;2023-05-25T08:06:42;97431.72;;;18.42;62.16
61035;BME280;46916;40.564;-7.958;2023-05-25T08:08:43;97431.00;;;18.48;62.31
61035;BME280;46916;40.564;-7.958;2023-05-25T08:10:44;97435.59;;;18.54;60.46
61035;BME280;46916;40.564;-7.958;2023-05-25T08:12:45;97432.66;;;18.49;60.49
61035;BME280;46916;40.564;-7.958;2023-05-25T08:14:46;97436.13;;;18.50;60.43
61035;BME280;46916;40.564;-7.958;2023-05-25T08:16:47;97434.13;;;18.52;60.09
61035;BME280;46916;40.564;-7.958;2023-05-25T08:18:48;97441.91;;;18.53;60.37
61035;BME280;46916;40.564;-7.958;2023-05-25T08:20:49;97429.09;;;18.57;59.68
61035;BME280;46916;40.564;-7.958;2023-05-25T08:22:50;97439.81;;;18.64;59.73
61035;BME280;46916;40.564;-7.958;2023-05-25T08:25:11;97441.84;;;18.62;60.20
61035;BME280;46916;40.564;-7.958;2023-05-25T08:27:13;97445.06;;;18.72;59.67
61035;BME280;46916;40.564;-7.958;2023-05-25T08:29:15;97444.88;;;18.73;59.56
61035;BME280;46916;40.564;-7.958;2023-05-25T08:31:17;97440.84;;;18.77;59.45
61035;BME280;46916;40.564;-7.958;2023-05-25T08:33:17;97447.44;;;18.81;59.35
61035;BME280;46916;40.564;-7.958;2023-05-25T08:35:18;97454.88;;;18.86;59.50
61035;BME280;46916;40.564;-7.958;2023-05-25T08:37:19;97445.09;;;18.87;59.04
61035;BME280;46916;40.564;-7.958;2023-05-25T08:39:22;97443.19;;;18.95;58.85
61035;BME280;46916;40.564;-7.958;2023-05-25T08:41:22;97450.41;;;19.01;58.99
61035;BME280;46916;40.564;-7.958;2023-05-25T08:43:41;97443.16;;;19.10;58.75
61035;BME280;46916;40.564;-7.958;2023-05-25T08:45:42;97444.63;;;19.13;58.61
61035;BME280;46916;40.564;-7.958;2023-05-25T08:47:43;97440.97;;;19.14;58.67
61035;BME280;46916;40.564;-7.958;2023-05-25T08:50:04;97460.28;;;19.22;58.76
61035;BME280;46916;40.564;-7.958;2023-05-25T08:52:09;97449.97;;;19.27;58.65
61035;BME280;46916;40.564;-7.958;2023-05-25T08:54:11;97452.22;;;19.30;58.87
61035;BME280;46916;40.564;-7.958;2023-05-25T08:56:12;97448.84;;;19.37;58.37
61035;BME280;46916;40.564;-7.958;2023-05-25T08:58:16;97444.34;;;19.37;58.49
61035;BME280;46916;40.564;-7.958;2023-05-25T09:00:22;97447.91;;;19.44;58.87
61035;BME280;46916;40.564;-7.958;2023-05-25T09:04:44;97449.72;;;19.59;57.39
61035;BME280;46916;40.564;-7.958;2023-05-25T09:06:45;97454.94;;;19.67;56.91
61035;BME280;46916;40.564;-7.958;2023-05-25T09:08:47;97452.94;;;19.69;56.58
61035;BME280;46916;40.564;-7.958;2023-05-25T09:11:06;97448.09;;;19.72;56.29
61035;BME280;46916;40.564;-7.958;2023-05-25T09:13:08;97451.19;;;19.76;56.77
61035;BME280;46916;40.564;-7.958;2023-05-25T09:15:10;97447.41;;;19.85;56.37
61035;BME280;46916;40.564;-7.958;2023-05-25T09:17:13;97455.00;;;19.88;55.63
61035;BME280;46916;40.564;-7.958;2023-05-25T09:19:14;97451.13;;;19.91;54.52
61035;BME280;46916;40.564;-7.958;2023-05-25T09:21:15;97449.69;;;19.88;55.64
61035;BME280;46916;40.564;-7.958;2023-05-25T09:23:16;97449.59;;;19.96;55.43
61035;BME280;46916;40.564;-7.958;2023-05-25T09:25:17;97450.66;;;20.02;54.60
61035;BME280;46916;40.564;-7.958;2023-05-25T09:27:22;97446.22;;;20.09;54.75
61035;BME280;46916;40.564;-7.958;2023-05-25T09:29:23;97448.06;;;20.09;54.60
61035;BME280;46916;40.564;-7.958;2023-05-25T09:31:23;97441.78;;;20.16;53.88
61035;BME280;46916;40.564;-7.958;2023-05-25T09:33:29;97439.13;;;20.16;54.32
61035;BME280;46916;40.564;-7.958;2023-05-25T09:35:30;97449.47;;;20.26;54.96
61035;BME280;46916;40.564;-7.958;2023-05-25T09:37:37;97445.88;;;20.40;53.19
61035;BME280;46916;40.564;-7.958;2023-05-25T09:39:41;97447.72;;;20.40;53.98
61035;BME280;46916;40.564;-7.958;2023-05-25T09:41:42;97439.81;;;20.46;53.62
61035;BME280;46916;40.564;-7.958;2023-05-25T09:43:43;97441.28;;;20.49;53.23
61035;BME280;46916;40.564;-7.958;2023-05-25T09:45:44;97437.88;;;20.55;53.79
61035;BME280;46916;40.564;-7.958;2023-05-25T09:47:45;97429.69;;;20.57;53.07
61035;BME280;46916;40.564;-7.958;2023-05-25T09:49:46;97434.69;;;20.66;53.44
61035;BME280;46916;40.564;-7.958;2023-05-25T09:51:49;97435.97;;;20.77;52.20
61035;BME280;46916;40.564;-7.958;2023-05-25T09:53:50;97433.72;;;20.74;52.39
61035;BME280;46916;40.564;-7.958;2023-05-25T09:55:51;97427.53;;;20.73;51.91
61035;BME280;46916;40.564;-7.958;2023-05-25T09:57:53;97426.72;;;20.73;52.18
61035;BME280;46916;40.564;-7.958;2023-05-25T09:59:54;97428.81;;;20.77;52.79
61035;BME280;46916;40.564;-7.958;2023-05-25T10:01:56;97429.25;;;20.81;52.39
61035;BME280;46916;40.564;-7.958;2023-05-25T10:03:57;97433.56;;;20.82;52.51
61035;BME280;46916;40.564;-7.958;2023-05-25T10:05:59;97425.38;;;20.84;52.21
61035;BME280;46916;40.564;-7.958;2023-05-25T10:08:00;97420.28;;;20.89;52.73
61035;BME280;46916;40.564;-7.958;2023-05-25T10:10:04;97425.66;;;20.95;51.63
61035;BME280;46916;40.564;-7.958;2023-05-25T10:12:07;97425.31;;;21.05;50.39
61035;BME280;46916;40.564;-7.958;2023-05-25T10:14:09;97428.84;;;21.12;50.29
61035;BME280;46916;40.564;-7.958;2023-05-25T10:16:13;97434.38;;;21.11;50.55
61035;BME280;46916;40.564;-7.958;2023-05-25T10:18:25;97414.69;;;21.12;51.04
61035;BME280;46916;40.564;-7.958;2023-05-25T10:20:28;97412.41;;;21.09;50.69
61035;BME280;46916;40.564;-7.958;2023-05-25T10:22:45;97416.53;;;21.11;51.20
61035;BME280;46916;40.564;-7.958;2023-05-25T10:25:09;97410.47;;;21.24;51.20
61035;BME280;46916;40.564;-7.958;2023-05-25T10:27:18;97414.97;;;21.23;50.41
61035;BME280;46916;40.564;-7.958;2023-05-25T10:29:22;97407.78;;;21.24;51.39
61035;BME280;46916;40.564;-7.958;2023-05-25T10:31:25;97406.00;;;21.31;50.39
61035;BME280;46916;40.564;-7.958;2023-05-25T10:33:28;97405.00;;;21.39;49.60
61035;BME280;46916;40.564;-7.958;2023-05-25T10:35:30;97400.72;;;21.38;50.33
61035;BME280;46916;40.564;-7.958;2023-05-25T10:37:32;97402.56;;;21.37;50.34
61035;BME280;46916;40.564;-7.958;2023-05-25T10:39:52;97407.09;;;21.43;49.75
61035;BME280;46916;40.564;-7.958;2023-05-25T10:41:55;97407.09;;;21.50;49.88
61035;BME280;46916;40.564;-7.958;2023-05-25T10:43:55;97402.41;;;21.59;50.03
61035;BME280;46916;40.564;-7.958;2023-05-25T10:45:56;97408.38;;;21.61;50.17
61035;BME280;46916;40.564;-7.958;2023-05-25T10:47:57;97404.72;;;21.68;49.90
61035;BME280;46916;40.564;-7.958;2023-05-25T10:49:58;97401.84;;;21.70;49.60
61035;BME280;46916;40.564;-7.958;2023-05-25T10:52:02;97407.81;;;21.72;49.55
61035;BME280;46916;40.564;-7.958;2023-05-25T10:54:03;97407.38;;;21.75;49.14
61035;BME280;46916;40.564;-7.958;2023-05-25T10:56:04;97399.22;;;21.76;48.79